createdAt,value
2019-03-13T00:02:19.939Z,2.23
2019-03-13T00:04:50.146Z,2.00
2019-03-13T00:07:21.652Z,1.97
2019-03-13T00:09:51.208Z,1.97
2019-03-13T00:12:21.911Z,1.77
2019-03-13T00:14:51.481Z,1.77
2019-03-13T00:17:20.871Z,2.03
2019-03-13T00:19:50.209Z,2.30
2019-03-13T00:22:19.509Z,2.30
2019-03-13T00:24:48.855Z,2.27
2019-03-13T00:27:18.285Z,2.20
2019-03-13T00:29:50.069Z,1.83
2019-03-13T00:32:19.473Z,2.80
2019-03-13T00:34:49.131Z,2.30
2019-03-13T00:37:18.503Z,3.23
2019-03-13T00:39:47.940Z,1.93
2019-03-13T00:42:17.214Z,2.10
2019-03-13T00:44:48.051Z,2.40
2019-03-13T00:47:18.923Z,1.40
2019-03-13T00:49:48.249Z,2.07
2019-03-13T00:52:17.584Z,1.73
2019-03-13T00:54:49.125Z,3.07
2019-03-13T00:57:18.488Z,1.57
2019-03-13T00:59:47.864Z,2.10
2019-03-13T01:02:34.156Z,2.37
2019-03-13T01:05:13.184Z,3.77
2019-03-13T01:07:42.869Z,2.90
2019-03-13T01:10:12.317Z,2.30
2019-03-13T01:12:42.110Z,2.43
2019-03-13T01:15:11.942Z,2.33
2019-03-13T01:17:41.490Z,2.50
2019-03-13T01:20:11.150Z,2.87
2019-03-13T01:22:43.274Z,2.00
2019-03-13T01:25:12.579Z,3.10
2019-03-13T01:27:42.307Z,2.50
2019-03-13T01:30:12.841Z,2.30
2019-03-13T01:33:00.338Z,2.03
2019-03-13T01:35:40.321Z,3.10
2019-03-13T01:38:09.937Z,2.33
2019-03-13T01:40:39.481Z,2.73
2019-03-13T01:43:08.882Z,2.30
2019-03-13T01:45:40.644Z,2.07
2019-03-13T01:48:10.261Z,2.60
2019-03-13T01:50:41.504Z,2.53
2019-03-13T01:53:11.164Z,2.73
2019-03-13T01:55:43.616Z,2.93
2019-03-13T01:58:13.348Z,3.07
2019-03-13T02:00:43.168Z,2.47
2019-03-13T02:03:13.260Z,3.47
2019-03-13T02:05:43.478Z,2.87
2019-03-13T02:08:14.796Z,3.20
2019-03-13T02:10:44.286Z,2.47
2019-03-13T02:13:13.602Z,2.30
2019-03-13T02:15:43.168Z,3.33
2019-03-13T02:18:12.485Z,2.07
2019-03-13T02:20:42.330Z,2.20
2019-03-13T02:23:11.690Z,2.90
2019-03-13T02:25:41.376Z,3.90
2019-03-13T02:28:10.748Z,2.30
2019-03-13T02:30:40.926Z,2.70
2019-03-13T02:33:10.308Z,1.70
2019-03-13T02:35:39.586Z,2.90
2019-03-13T02:38:08.879Z,2.40
2019-03-13T02:40:38.544Z,2.30
2019-03-13T02:43:10.651Z,3.37
2019-03-13T02:45:39.985Z,3.10
2019-03-13T02:48:09.406Z,2.37
2019-03-13T02:50:38.739Z,2.40
2019-03-13T02:53:08.087Z,3.17
2019-03-13T02:55:39.587Z,2.50
2019-03-13T02:58:08.926Z,3.53
2019-03-13T03:00:54.733Z,2.67
2019-03-13T03:03:32.583Z,2.30
2019-03-13T03:06:01.900Z,2.83
2019-03-13T03:08:31.197Z,3.83
2019-03-13T03:11:00.876Z,3.47
2019-03-13T03:13:30.438Z,3.13
2019-03-13T03:16:03.479Z,2.20
2019-03-13T03:18:32.996Z,2.80
2019-03-13T03:21:02.461Z,3.03
2019-03-13T03:23:31.822Z,2.67
2019-03-13T03:26:07.765Z,3.87
2019-03-13T03:28:37.577Z,3.03
2019-03-13T03:31:09.147Z,2.53
2019-03-13T03:33:41.698Z,3.20
2019-03-13T03:36:10.978Z,2.70
2019-03-13T03:38:40.247Z,2.47
2019-03-13T03:41:10.037Z,2.60
2019-03-13T03:43:40.992Z,2.80
2019-03-13T03:46:12.859Z,3.70
2019-03-13T03:48:42.737Z,2.80
2019-03-13T03:51:12.081Z,3.43
2019-03-13T03:53:42.837Z,2.77
2019-03-13T03:56:12.480Z,3.40
2019-03-13T03:58:45.455Z,3.77
2019-03-13T04:01:15.180Z,3.77
2019-03-13T04:03:44.543Z,3.47
2019-03-13T04:06:16.319Z,2.80
2019-03-13T04:08:45.748Z,3.73
2019-03-13T04:11:18.865Z,3.43
2019-03-13T04:13:48.652Z,3.37
2019-03-13T04:16:17.939Z,3.13
2019-03-13T04:18:47.569Z,3.60
2019-03-13T04:21:16.808Z,3.30
2019-03-13T04:23:46.584Z,3.73
2019-03-13T04:26:16.308Z,3.30
2019-03-13T04:28:45.689Z,2.77
2019-03-13T04:31:14.964Z,3.90
2019-03-13T04:33:46.515Z,3.30
2019-03-13T04:36:15.825Z,3.53
2019-03-13T04:38:45.177Z,2.40
2019-03-13T04:41:14.513Z,3.83
2019-03-13T04:43:43.790Z,3.60
2019-03-13T04:46:13.425Z,4.17
2019-03-13T04:48:45.271Z,3.77
2019-03-13T04:51:14.571Z,3.20
2019-03-13T04:53:47.108Z,3.37
2019-03-13T04:56:16.381Z,3.40
2019-03-13T04:58:45.748Z,3.20
2019-03-13T05:01:15.114Z,4.17
2019-03-13T05:03:44.736Z,3.53
2019-03-13T05:06:22.318Z,2.87
2019-03-13T05:08:57.527Z,3.20
2019-03-13T05:11:26.626Z,3.93
2019-03-13T05:13:57.475Z,2.80
2019-03-13T05:16:27.208Z,3.07
2019-03-13T05:18:58.936Z,3.33
2019-03-13T05:21:28.215Z,3.63
2019-03-13T05:24:00.202Z,3.87
2019-03-13T05:26:33.039Z,3.00
2019-03-13T05:29:02.730Z,3.63
2019-03-13T05:31:32.333Z,3.67
2019-03-13T05:34:01.938Z,4.40
2019-03-13T05:36:34.614Z,3.27
2019-03-13T05:39:05.802Z,3.50
2019-03-13T05:41:35.446Z,3.60
2019-03-13T05:44:04.766Z,3.73
2019-03-13T05:46:34.314Z,4.33
2019-03-13T05:49:06.052Z,3.17
2019-03-13T05:51:35.850Z,3.80
2019-03-13T05:54:05.195Z,5.03
2019-03-13T05:56:40.867Z,4.67
2019-03-13T05:59:10.688Z,3.60
2019-03-13T06:01:40.224Z,4.30
2019-03-13T06:04:09.427Z,3.83
2019-03-13T06:06:39.139Z,3.73
2019-03-13T06:09:09.215Z,3.70
2019-03-13T06:11:38.397Z,4.03
2019-03-13T06:14:08.172Z,3.87
2019-03-13T06:16:37.446Z,3.77
2019-03-13T06:19:07.182Z,3.30
2019-03-13T06:21:36.489Z,3.80
2019-03-13T06:24:09.201Z,3.80
2019-03-13T06:26:38.472Z,3.53
2019-03-13T06:29:10.270Z,3.60
2019-03-13T06:31:39.526Z,3.23
2019-03-13T06:34:11.305Z,3.93
2019-03-13T06:36:39.782Z,4.27
2019-03-13T06:39:09.473Z,3.90
2019-03-13T06:41:39.171Z,4.03
2019-03-13T06:44:08.561Z,3.80
2019-03-13T06:46:37.923Z,3.93
2019-03-13T06:49:07.636Z,3.80
2019-03-13T06:51:37.537Z,3.60
2019-03-13T06:54:06.824Z,3.20
2019-03-13T06:56:36.172Z,3.30
2019-03-13T06:59:13.993Z,4.30
2019-03-13T07:02:07.710Z,3.57
2019-03-13T07:04:54.665Z,4.17
2019-03-13T07:07:45.767Z,3.37
2019-03-13T07:10:23.995Z,4.47
2019-03-13T07:13:01.405Z,3.83
2019-03-13T07:15:36.625Z,3.03
2019-03-13T07:18:13.545Z,3.03
2019-03-13T07:21:07.941Z,3.77
2019-03-13T07:23:54.663Z,4.33
2019-03-13T07:26:31.110Z,3.83
2019-03-13T07:29:12.384Z,4.47
2019-03-13T07:31:52.602Z,4.00
2019-03-13T07:34:53.016Z,4.23
2019-03-13T07:37:34.415Z,4.47
2019-03-13T07:40:14.620Z,3.37
2019-03-13T07:43:09.111Z,3.57
2019-03-13T07:46:13.130Z,3.50
2019-03-13T07:49:10.946Z,2.10
2019-03-13T07:51:58.155Z,4.47
2019-03-13T07:54:45.529Z,3.23
2019-03-13T07:57:22.805Z,3.40
2019-03-13T08:00:27.265Z,3.27
2019-03-13T08:03:27.464Z,4.00
2019-03-13T08:06:23.105Z,2.70
2019-03-13T08:09:10.111Z,4.60
2019-03-13T08:11:45.966Z,3.77
2019-03-13T08:14:29.876Z,3.63
2019-03-13T08:17:23.962Z,3.90
2019-03-13T08:20:18.426Z,4.47
2019-03-13T08:23:10.115Z,3.47
2019-03-13T08:25:57.068Z,4.17
2019-03-13T08:28:33.788Z,3.10
2019-03-13T08:31:13.873Z,3.23
2019-03-13T08:34:12.965Z,3.70
2019-03-13T08:36:59.195Z,4.30
2019-03-13T08:39:44.834Z,4.00
2019-03-13T08:42:28.925Z,3.03
2019-03-13T08:45:20.841Z,3.80
2019-03-13T08:48:12.837Z,5.20
2019-03-13T08:51:03.118Z,3.80
2019-03-13T08:53:50.662Z,4.30
2019-03-13T08:56:26.582Z,4.00
2019-03-13T08:59:07.553Z,3.33
2019-03-13T09:02:02.271Z,4.23
2019-03-13T09:04:53.739Z,4.70
2019-03-13T09:07:45.376Z,3.87
2019-03-13T09:10:33.208Z,3.33
2019-03-13T09:13:16.300Z,3.40
2019-03-13T09:16:03.150Z,4.00
2019-03-13T09:18:41.352Z,3.97
2019-03-13T09:21:33.743Z,3.30
2019-03-13T09:24:12.839Z,4.10
2019-03-13T09:27:01.138Z,4.17
2019-03-13T09:29:44.622Z,4.23
2019-03-13T09:32:50.883Z,4.20
2019-03-13T09:35:38.254Z,2.47
2019-03-13T09:38:14.085Z,3.83
2019-03-13T09:41:01.151Z,4.23
2019-03-13T09:43:49.467Z,4.33
2019-03-13T09:46:27.979Z,6.07
2019-03-13T09:49:14.875Z,3.17
2019-03-13T09:52:12.071Z,3.77
2019-03-13T09:55:10.349Z,4.23
2019-03-13T09:58:01.677Z,4.17
2019-03-13T10:00:44.551Z,3.97
2019-03-13T10:03:21.709Z,3.87
2019-03-13T10:06:24.869Z,4.77
2019-03-13T10:09:13.528Z,4.57
2019-03-13T10:12:10.941Z,3.57
2019-03-13T10:14:49.441Z,4.47
2019-03-13T10:17:46.590Z,3.67
2019-03-13T10:20:44.169Z,3.50
2019-03-13T10:23:25.587Z,4.20
2019-03-13T10:26:13.867Z,4.07
2019-03-13T10:29:05.189Z,3.23
2019-03-13T10:31:56.563Z,4.50
2019-03-13T10:34:50.672Z,2.90
2019-03-13T10:37:46.505Z,4.43
2019-03-13T10:40:35.381Z,5.13
2019-03-13T10:43:26.428Z,5.30
2019-03-13T10:46:02.037Z,3.20
2019-03-13T10:48:53.221Z,4.27
2019-03-13T10:51:45.350Z,4.27
2019-03-13T10:54:39.498Z,4.60
2019-03-13T10:57:33.565Z,3.90
2019-03-13T11:00:14.295Z,5.50
2019-03-13T11:02:59.765Z,3.40
2019-03-13T11:05:57.406Z,3.53
2019-03-13T11:08:33.009Z,3.80
2019-03-13T11:11:24.216Z,3.30
2019-03-13T11:14:15.785Z,3.80
2019-03-13T11:16:51.440Z,4.57
2019-03-13T11:19:43.081Z,3.33
2019-03-13T11:22:50.822Z,3.87
2019-03-13T11:25:45.845Z,4.20
2019-03-13T11:28:23.161Z,3.93
2019-03-13T11:31:17.268Z,3.03
2019-03-13T11:34:14.590Z,3.57
2019-03-13T11:37:02.933Z,4.83
2019-03-13T11:39:57.320Z,5.10
2019-03-13T11:42:44.356Z,4.53
2019-03-13T11:45:30.944Z,6.17
2019-03-13T11:48:34.594Z,6.60
2019-03-13T11:51:26.893Z,4.57
2019-03-13T11:54:02.566Z,3.80
2019-03-13T11:56:52.319Z,3.70
2019-03-13T11:59:41.290Z,2.57
2019-03-13T12:02:47.735Z,4.90
2019-03-13T12:05:41.751Z,5.40
2019-03-13T12:08:21.840Z,4.53
2019-03-13T12:11:07.046Z,4.73
2019-03-13T12:14:01.612Z,6.07
2019-03-13T12:16:48.501Z,5.33
2019-03-13T12:19:29.830Z,4.90
2019-03-13T12:22:29.976Z,4.30
2019-03-13T12:25:06.924Z,5.07
2019-03-13T12:27:44.863Z,4.20
2019-03-13T12:30:30.552Z,4.90
2019-03-13T12:33:21.895Z,4.03
2019-03-13T12:36:10.291Z,3.83
2019-03-13T12:38:54.289Z,3.83
2019-03-13T12:41:45.525Z,3.93
2019-03-13T12:44:24.665Z,4.03
2019-03-13T12:47:16.228Z,3.93
2019-03-13T12:49:59.569Z,4.50
2019-03-13T12:52:48.196Z,4.27
2019-03-13T12:55:34.792Z,4.47
2019-03-13T12:58:26.540Z,3.60
2019-03-13T13:01:14.785Z,3.90
2019-03-13T13:04:01.767Z,3.37
2019-03-13T13:06:48.527Z,4.43
2019-03-13T13:09:43.868Z,3.47
2019-03-13T13:12:44.132Z,2.87
2019-03-13T13:15:35.806Z,3.63
2019-03-13T13:18:22.464Z,3.47
2019-03-13T13:20:52.109Z,3.60
2019-03-13T13:23:21.721Z,3.40
2019-03-13T13:25:51.196Z,2.10
2019-03-13T13:28:20.775Z,2.67
2019-03-13T13:30:50.039Z,3.50
2019-03-13T13:33:19.555Z,3.57
2019-03-13T13:35:49.177Z,5.30
2019-03-13T13:38:18.852Z,3.50
2019-03-13T13:40:48.197Z,4.43
2019-03-13T13:43:17.849Z,3.60
2019-03-13T13:45:53.563Z,3.50
2019-03-13T13:48:22.848Z,3.83
2019-03-13T13:50:54.090Z,3.87
2019-03-13T13:53:23.783Z,3.23
2019-03-13T13:55:53.483Z,3.77
2019-03-13T13:58:23.061Z,3.63
2019-03-13T14:00:52.317Z,3.37
2019-03-13T14:03:21.865Z,2.90
2019-03-13T14:05:51.233Z,2.27
2019-03-13T14:08:20.586Z,1.67
2019-03-13T14:10:49.821Z,2.70
2019-03-13T14:13:19.161Z,3.43
2019-03-13T14:15:48.577Z,2.67
2019-03-13T14:18:17.932Z,3.70
2019-03-13T14:20:47.186Z,2.90
2019-03-13T14:23:16.829Z,3.03
2019-03-13T14:25:46.378Z,3.37
2019-03-13T14:28:15.640Z,3.50
2019-03-13T14:30:45.164Z,3.40
2019-03-13T14:33:14.469Z,3.53
2019-03-13T14:35:46.170Z,3.20
2019-03-13T14:38:14.997Z,3.50
2019-03-13T14:40:44.637Z,3.00
2019-03-13T14:43:13.972Z,3.30
2019-03-13T14:45:43.248Z,3.70
2019-03-13T14:48:12.638Z,3.50
2019-03-13T14:50:42.371Z,2.80
2019-03-13T14:53:11.618Z,2.40
2019-03-13T14:55:40.933Z,2.53
2019-03-13T14:58:10.205Z,2.43
2019-03-13T15:00:39.506Z,2.43
2019-03-13T15:03:08.837Z,2.17
2019-03-13T15:05:38.124Z,1.97
2019-03-13T15:08:07.474Z,2.13
2019-03-13T15:10:36.871Z,2.40
2019-03-13T15:13:06.482Z,2.23
2019-03-13T15:15:35.882Z,2.67
2019-03-13T15:18:05.385Z,2.60
2019-03-13T15:20:37.756Z,2.57
2019-03-13T15:23:07.738Z,3.20
2019-03-13T15:25:37.292Z,2.30
2019-03-13T15:28:06.476Z,3.03
2019-03-13T15:30:35.955Z,2.77
2019-03-13T15:33:05.353Z,3.30
2019-03-13T15:35:34.635Z,2.90
2019-03-13T15:38:03.966Z,2.10
2019-03-13T15:40:33.753Z,2.77
2019-03-13T15:43:03.146Z,1.77
2019-03-13T15:45:32.788Z,1.70
2019-03-13T15:48:02.174Z,1.80
2019-03-13T15:50:31.395Z,2.10
2019-03-13T15:53:03.648Z,2.00
2019-03-13T15:55:32.871Z,2.90
2019-03-13T15:58:02.196Z,2.93
2019-03-13T16:00:31.456Z,3.10
2019-03-13T16:03:00.741Z,3.27
2019-03-13T16:05:30.267Z,3.40
2019-03-13T16:07:59.544Z,3.67
2019-03-13T16:10:29.244Z,3.50
2019-03-13T16:13:00.932Z,4.73
2019-03-13T16:15:31.230Z,4.00
2019-03-13T16:18:03.371Z,3.70
2019-03-13T16:20:33.008Z,3.83
2019-03-13T16:23:03.035Z,3.87
2019-03-13T16:25:32.835Z,2.73
2019-03-13T16:28:02.130Z,2.80
2019-03-13T16:30:34.487Z,2.17
2019-03-13T16:33:03.801Z,2.47
2019-03-13T16:35:33.126Z,2.70
2019-03-13T16:38:02.518Z,2.20
2019-03-13T16:40:32.235Z,3.43
2019-03-13T16:43:01.641Z,2.97
2019-03-13T16:45:31.399Z,2.70
2019-03-13T16:48:00.889Z,2.77
2019-03-13T16:50:30.651Z,3.20
2019-03-13T16:53:00.100Z,3.77
2019-03-13T16:55:29.662Z,4.10
2019-03-13T16:57:59.176Z,4.90
2019-03-13T17:00:29.296Z,5.50
2019-03-13T17:02:58.771Z,4.80
2019-03-13T17:05:28.042Z,6.20
2019-03-13T17:07:57.380Z,4.23
2019-03-13T17:10:26.693Z,3.33
2019-03-13T17:12:56.494Z,3.87
2019-03-13T17:15:26.602Z,4.30
2019-03-13T17:17:56.298Z,4.47
2019-03-13T17:20:26.669Z,4.67
2019-03-13T17:22:56.312Z,4.40
2019-03-13T17:25:25.542Z,4.07
2019-03-13T17:27:54.873Z,4.03
2019-03-13T17:30:25.581Z,3.50
2019-03-13T17:32:55.000Z,3.87
2019-03-13T17:35:24.207Z,3.50
2019-03-13T17:37:53.755Z,3.50
2019-03-13T17:40:24.145Z,4.17
2019-03-13T17:42:53.961Z,4.70
2019-03-13T17:45:23.438Z,4.20
2019-03-13T17:47:53.284Z,4.53
2019-03-13T17:50:23.491Z,4.10
2019-03-13T17:52:52.899Z,3.77
2019-03-13T17:55:22.223Z,4.50
2019-03-13T17:57:52.069Z,4.53
2019-03-13T18:00:24.549Z,4.07
2019-03-13T18:02:53.844Z,4.53
2019-03-13T18:05:24.907Z,3.43
2019-03-13T18:07:54.262Z,3.97
2019-03-13T18:10:23.793Z,4.20
2019-03-13T18:12:53.456Z,3.43
2019-03-13T18:15:22.828Z,3.87
2019-03-13T18:17:52.214Z,4.33
2019-03-13T18:20:22.138Z,4.03
2019-03-13T18:22:51.567Z,4.07
2019-03-13T18:25:21.304Z,4.13
2019-03-13T18:27:51.000Z,3.77
2019-03-13T18:30:21.899Z,4.23
2019-03-13T18:32:51.260Z,4.43
2019-03-13T18:35:20.602Z,4.00
2019-03-13T18:37:49.917Z,4.37
2019-03-13T18:40:19.302Z,4.77
2019-03-13T18:42:48.674Z,4.43
2019-03-13T18:45:20.648Z,4.33
2019-03-13T18:47:50.527Z,4.47
2019-03-13T18:50:20.569Z,4.23
2019-03-13T18:52:49.996Z,4.10
2019-03-13T18:55:20.315Z,4.40
2019-03-13T18:57:50.885Z,4.30
2019-03-13T19:00:22.728Z,3.20
2019-03-13T19:02:52.045Z,4.10
2019-03-13T19:05:21.790Z,4.50
2019-03-13T19:07:51.433Z,3.73
2019-03-13T19:10:21.176Z,4.13
2019-03-13T19:12:50.454Z,3.90
2019-03-13T19:15:21.335Z,3.73
2019-03-13T19:17:50.929Z,4.37
2019-03-13T19:20:21.368Z,4.33
2019-03-13T19:22:51.027Z,4.47
2019-03-13T19:25:20.538Z,3.83
2019-03-13T19:27:50.205Z,3.97
2019-03-13T19:30:24.421Z,4.20
2019-03-13T19:32:54.068Z,4.13
2019-03-13T19:35:24.100Z,5.03
2019-03-13T19:37:53.587Z,4.40
2019-03-13T19:40:23.072Z,4.33
2019-03-13T19:42:52.296Z,4.43
2019-03-13T19:45:24.535Z,4.43
2019-03-13T19:47:53.810Z,4.43
2019-03-13T19:50:23.184Z,5.10
2019-03-13T19:52:52.760Z,4.57
2019-03-13T19:55:22.047Z,3.97
2019-03-13T19:57:51.352Z,3.90
2019-03-13T20:00:22.637Z,3.97
2019-03-13T20:02:59.884Z,4.10
2019-03-13T20:05:24.017Z,4.70
2019-03-13T20:07:53.438Z,4.27
2019-03-13T20:10:24.080Z,3.93
2019-03-13T20:12:53.357Z,3.50
2019-03-13T20:15:23.435Z,3.73
2019-03-13T20:17:52.990Z,4.33
2019-03-13T20:20:22.853Z,4.20
2019-03-13T20:22:56.782Z,4.10
2019-03-13T20:25:25.030Z,4.73
2019-03-13T20:27:54.906Z,4.07
2019-03-13T20:30:24.757Z,4.60
2019-03-13T20:32:55.014Z,3.17
2019-03-13T20:35:24.416Z,4.00
2019-03-13T20:37:53.825Z,4.17
2019-03-13T20:40:27.616Z,3.83
2019-03-13T20:42:57.362Z,3.50
2019-03-13T20:45:26.626Z,3.53
2019-03-13T20:47:56.260Z,2.20
2019-03-13T20:50:36.620Z,2.00
2019-03-13T20:52:57.580Z,1.60
2019-03-13T20:55:26.834Z,1.70
2019-03-13T20:57:56.196Z,3.60
2019-03-13T21:00:25.568Z,4.77
2019-03-13T21:02:55.249Z,3.07
2019-03-13T21:05:25.056Z,3.03
2019-03-13T21:07:54.564Z,7.23
2019-03-13T21:10:23.942Z,2.63
2019-03-13T21:12:53.266Z,2.27
2019-03-13T21:15:22.621Z,2.30
2019-03-13T21:17:52.229Z,2.80
2019-03-13T21:20:22.319Z,2.47
2019-03-13T21:22:51.785Z,2.87
2019-03-13T21:25:21.089Z,3.17
2019-03-13T21:27:50.513Z,4.10
2019-03-13T21:30:21.921Z,3.57
2019-03-13T21:32:51.513Z,3.60
2019-03-13T21:35:29.113Z,3.50
2019-03-13T21:37:58.410Z,3.73
2019-03-13T21:40:27.758Z,3.20
2019-03-13T21:42:57.248Z,3.03
2019-03-13T21:45:40.015Z,2.90
2019-03-13T21:47:57.955Z,3.23
2019-03-13T21:50:27.364Z,3.37
2019-03-13T21:52:56.628Z,3.40
2019-03-13T21:55:27.523Z,3.50
2019-03-13T21:57:57.300Z,4.40
2019-03-13T22:00:27.031Z,3.83
2019-03-13T22:02:56.730Z,3.53
2019-03-13T22:05:27.206Z,3.53
2019-03-13T22:07:56.856Z,3.83
2019-03-13T22:10:26.433Z,4.07
2019-03-13T22:12:55.816Z,4.47
2019-03-13T22:15:25.416Z,4.03
2019-03-13T22:17:54.749Z,4.13
2019-03-13T22:20:24.724Z,4.47
2019-03-13T22:22:54.020Z,4.33
2019-03-13T22:25:23.505Z,4.20
2019-03-13T22:27:52.816Z,4.10
2019-03-13T22:30:22.833Z,4.10
2019-03-13T22:32:52.177Z,3.73
2019-03-13T22:35:21.568Z,3.67
2019-03-13T22:37:50.833Z,4.10
2019-03-13T22:40:21.265Z,3.67
2019-03-13T22:42:51.289Z,3.73
2019-03-13T22:45:21.441Z,3.40
2019-03-13T22:47:53.045Z,4.07
2019-03-13T22:50:22.769Z,4.30
2019-03-13T22:52:52.076Z,3.63
2019-03-13T22:55:22.404Z,3.43
2019-03-13T22:57:51.785Z,4.27
2019-03-13T23:00:51.083Z,3.80
2019-03-13T23:03:21.484Z,3.60
2019-03-13T23:05:50.943Z,4.03
2019-03-13T23:08:20.578Z,3.30
2019-03-13T23:10:52.271Z,3.17
2019-03-13T23:13:21.547Z,3.67
2019-03-13T23:15:50.880Z,3.53
2019-03-13T23:18:20.582Z,3.40
2019-03-13T23:20:50.244Z,4.07
2019-03-13T23:23:19.809Z,3.27
2019-03-13T23:25:49.392Z,3.60
2019-03-13T23:28:18.974Z,4.33
2019-03-13T23:30:48.311Z,4.43
2019-03-13T23:33:17.936Z,3.57
2019-03-13T23:35:47.318Z,3.70
2019-03-13T23:38:16.538Z,3.60
2019-03-13T23:40:46.181Z,4.23
2019-03-13T23:43:16.126Z,3.73
2019-03-13T23:45:45.378Z,3.93
2019-03-13T23:48:14.693Z,3.87
2019-03-13T23:50:44.033Z,3.60
2019-03-13T23:53:13.712Z,3.90
2019-03-13T23:55:42.943Z,3.70
2019-03-13T23:58:12.546Z,3.33
